Madison, New Hampshire
Current Conditions -  °F | °C
As of 9:05 AM on Thursday 23 Oct 2014 (Local Time) from KIZG Reporting Station
Light Rain Light Rain  
Wind Chill: 44°   Ceiling: 1300
Heat Index: 48°   Visibility: 7mi
Dew Point: 45°   Wind: 9mph
Humidity: 89%   Direction: 360°N
Pressure: 29.86"   Gusts: 16mph
Location:  43.9°N, 71.15°W
Report Text: KIZG 231305Z AUTO 36008G14KT 320V040 7SM -RA OVC013 09/07 A2986 RMK AO2 P0001 T00890072
Loading
Personal Weather Stations






























Interactive Weather Map
Tropical Storm Tracking
New forecast layout! Learn more

10-Day Weather Forecast

Advertisements
Track Severe Weather on mobile